createdAt,value
2023-07-20T00:04:46.038Z,20.00
2023-07-20T00:07:12.474Z,20.03
2023-07-20T00:09:38.894Z,19.98
2023-07-20T00:12:05.329Z,19.88
2023-07-20T00:14:31.777Z,19.87
2023-07-20T00:16:58.245Z,19.71
2023-07-20T00:19:24.652Z,19.66
2023-07-20T00:21:51.173Z,19.60
2023-07-20T00:24:17.578Z,19.56
2023-07-20T00:26:43.991Z,19.62
2023-07-20T00:29:10.368Z,19.55
2023-07-20T00:31:36.737Z,19.46
2023-07-20T00:34:03.108Z,19.49
2023-07-20T00:36:29.485Z,19.60
2023-07-20T00:38:55.886Z,19.56
2023-07-20T00:41:22.263Z,19.58
2023-07-20T00:43:48.645Z,19.47
2023-07-20T00:46:15.087Z,19.41
2023-07-20T00:48:41.513Z,19.46
2023-07-20T00:51:07.900Z,19.45
2023-07-20T00:53:34.270Z,19.29
2023-07-20T00:56:00.675Z,19.15
2023-07-20T00:58:27.072Z,19.01
2023-07-20T01:00:53.442Z,19.03
2023-07-20T01:03:19.908Z,18.93
2023-07-20T01:05:46.366Z,18.88
2023-07-20T01:08:12.756Z,18.92
2023-07-20T01:10:39.162Z,18.88
2023-07-20T01:13:05.563Z,18.91
2023-07-20T01:15:31.952Z,18.83
2023-07-20T01:17:58.351Z,18.83
2023-07-20T01:20:24.795Z,18.89
2023-07-20T01:22:51.875Z,18.85
2023-07-20T01:25:18.368Z,18.81
2023-07-20T01:27:44.757Z,18.81
2023-07-20T01:30:11.134Z,18.80
2023-07-20T01:32:37.568Z,18.83
2023-07-20T01:35:03.970Z,18.67
2023-07-20T01:37:30.363Z,18.71
2023-07-20T01:39:56.763Z,18.67
2023-07-20T01:42:23.152Z,18.65
2023-07-20T01:44:49.520Z,18.64
2023-07-20T01:47:15.925Z,18.58
2023-07-20T01:49:42.330Z,18.59
2023-07-20T01:52:08.706Z,18.60
2023-07-20T01:54:35.131Z,18.55
2023-07-20T01:57:01.498Z,18.56
2023-07-20T01:59:27.880Z,18.64
2023-07-20T02:01:54.256Z,18.58
2023-07-20T02:04:20.644Z,18.55
2023-07-20T02:06:47.018Z,18.47
2023-07-20T02:09:13.445Z,18.35
2023-07-20T02:11:39.820Z,18.37
2023-07-20T02:14:06.231Z,18.37
2023-07-20T02:16:32.679Z,18.38
2023-07-20T02:18:59.112Z,18.28
2023-07-20T02:21:25.575Z,18.27
2023-07-20T02:23:51.953Z,18.26
2023-07-20T02:26:18.350Z,18.27
2023-07-20T02:28:44.752Z,18.26
2023-07-20T02:31:11.163Z,18.28
2023-07-20T02:33:37.562Z,18.25
2023-07-20T02:36:03.939Z,18.13
2023-07-20T02:38:30.327Z,18.11
2023-07-20T02:40:56.725Z,18.11
2023-07-20T02:43:23.136Z,18.16
2023-07-20T02:45:49.553Z,18.16
2023-07-20T02:48:15.957Z,18.16
2023-07-20T02:50:42.332Z,18.22
2023-07-20T02:53:08.754Z,18.15
2023-07-20T02:55:35.146Z,18.13
2023-07-20T02:58:01.525Z,18.09
2023-07-20T03:00:27.908Z,18.09
2023-07-20T03:02:54.299Z,18.02
2023-07-20T03:05:20.708Z,18.01
2023-07-20T03:07:47.090Z,17.96
2023-07-20T03:10:13.477Z,17.92
2023-07-20T03:12:39.846Z,17.91
2023-07-20T03:15:06.229Z,17.91
2023-07-20T03:17:32.595Z,17.86
2023-07-20T03:19:59.003Z,17.85
2023-07-20T03:22:25.419Z,17.77
2023-07-20T03:24:51.820Z,17.77
2023-07-20T03:27:18.200Z,17.69
2023-07-20T03:29:44.579Z,17.80
2023-07-20T03:32:11.017Z,17.77
2023-07-20T03:34:37.396Z,17.71
2023-07-20T03:37:03.770Z,17.75
2023-07-20T03:39:30.147Z,17.75
2023-07-20T03:41:56.524Z,17.78
2023-07-20T03:44:22.909Z,17.81
2023-07-20T03:46:49.383Z,17.79
2023-07-20T03:49:15.779Z,17.75
2023-07-20T03:51:42.161Z,17.79
2023-07-20T03:54:08.568Z,17.79
2023-07-20T03:56:34.970Z,17.69
2023-07-20T03:59:01.377Z,17.71
2023-07-20T04:01:27.844Z,17.73
2023-07-20T04:03:54.291Z,17.74
2023-07-20T04:06:20.869Z,17.78
2023-07-20T04:08:47.532Z,17.72
2023-07-20T04:11:13.937Z,17.81
2023-07-20T04:13:40.334Z,17.82
2023-07-20T04:16:06.700Z,17.77
2023-07-20T04:18:33.116Z,17.74
2023-07-20T04:20:59.527Z,17.79
2023-07-20T04:23:25.932Z,17.79
2023-07-20T04:25:52.312Z,17.79
2023-07-20T04:28:18.709Z,17.75
2023-07-20T04:30:45.106Z,17.70
2023-07-20T04:33:11.978Z,17.62
2023-07-20T04:35:39.235Z,17.75
2023-07-20T04:38:05.636Z,17.85
2023-07-20T04:40:32.040Z,17.89
2023-07-20T04:42:58.435Z,17.82
2023-07-20T04:45:24.849Z,17.93
2023-07-20T04:47:51.278Z,18.07
2023-07-20T04:50:17.678Z,18.01
2023-07-20T04:52:44.072Z,17.92
2023-07-20T04:55:10.463Z,17.88
2023-07-20T04:57:36.849Z,17.97
2023-07-20T05:00:03.264Z,17.93
2023-07-20T05:02:29.736Z,17.92
2023-07-20T05:04:56.160Z,18.00
2023-07-20T05:07:22.544Z,18.09
2023-07-20T05:09:48.930Z,18.10
2023-07-20T05:12:15.327Z,18.16
2023-07-20T05:14:41.728Z,18.21
2023-07-20T05:17:08.111Z,18.32
2023-07-20T05:19:34.517Z,18.46
2023-07-20T05:22:00.892Z,18.55
2023-07-20T05:24:27.376Z,18.61
2023-07-20T05:26:53.848Z,18.75
2023-07-20T05:29:20.229Z,18.87
2023-07-20T05:31:46.624Z,18.97
2023-07-20T05:34:13.056Z,19.10
2023-07-20T05:36:39.489Z,19.18
2023-07-20T05:39:05.864Z,19.29
2023-07-20T05:41:32.261Z,19.35
2023-07-20T05:43:58.653Z,19.43
2023-07-20T05:46:25.369Z,19.53
2023-07-20T05:48:52.099Z,19.58
2023-07-20T05:51:18.472Z,19.69
2023-07-20T05:53:44.882Z,19.71
2023-07-20T05:56:11.271Z,19.80
2023-07-20T05:58:37.658Z,19.85
2023-07-20T06:01:04.103Z,19.91
2023-07-20T06:03:30.523Z,19.99
2023-07-20T06:05:56.973Z,20.10
2023-07-20T06:08:23.375Z,20.10
2023-07-20T06:10:49.754Z,20.19
2023-07-20T06:13:16.138Z,20.35
2023-07-20T06:15:42.580Z,20.39
2023-07-20T06:18:08.984Z,20.40
2023-07-20T06:20:35.431Z,20.48
2023-07-20T06:23:01.919Z,20.57
2023-07-20T06:25:28.379Z,20.63
2023-07-20T06:27:54.863Z,20.88
2023-07-20T06:30:21.413Z,20.97
2023-07-20T06:32:47.865Z,21.08
2023-07-20T06:35:14.281Z,21.23
2023-07-20T06:37:40.656Z,21.39
2023-07-20T06:45:05.621Z,21.52
2023-07-20T06:47:32.044Z,21.66
2023-07-20T06:49:58.434Z,21.67
2023-07-20T06:52:24.792Z,21.77
2023-07-20T06:54:51.284Z,21.96
2023-07-20T06:57:19.065Z,21.91
2023-07-20T07:02:20.635Z,21.88
2023-07-20T07:04:47.110Z,21.96
2023-07-20T07:07:13.545Z,21.74
2023-07-20T07:09:39.916Z,21.79
2023-07-20T07:12:06.291Z,21.84
2023-07-20T07:14:33.349Z,21.92
2023-07-20T07:17:00.015Z,21.98
2023-07-20T07:19:26.516Z,22.00
2023-07-20T07:21:52.882Z,22.01
2023-07-20T07:24:20.396Z,21.94
2023-07-20T07:26:46.919Z,22.08
2023-07-20T07:29:13.309Z,22.08
2023-07-20T07:31:39.808Z,22.02
2023-07-20T07:34:06.266Z,22.08
2023-07-20T07:36:32.701Z,22.17
2023-07-20T07:41:28.390Z,22.30
2023-07-20T07:43:54.797Z,22.49
2023-07-20T07:46:21.448Z,22.63
2023-07-20T07:48:48.170Z,22.68
2023-07-20T07:51:14.559Z,22.85
2023-07-20T07:53:40.961Z,22.84
2023-07-20T07:56:07.350Z,22.77
2023-07-20T07:58:33.722Z,22.76
2023-07-20T08:01:00.124Z,22.90
2023-07-20T08:03:26.534Z,23.03
2023-07-20T08:05:53.324Z,23.11
2023-07-20T08:08:20.775Z,23.19
2023-07-20T08:10:47.262Z,23.13
2023-07-20T08:13:13.677Z,23.16
2023-07-20T08:15:40.066Z,23.16
2023-07-20T08:18:06.592Z,23.19
2023-07-20T08:20:33.113Z,23.33
2023-07-20T08:22:59.507Z,23.48
2023-07-20T08:25:25.881Z,23.59
2023-07-20T08:27:52.325Z,23.63
2023-07-20T08:30:18.725Z,23.70
2023-07-20T08:32:45.162Z,23.80
2023-07-20T08:35:11.584Z,23.95
2023-07-20T08:37:37.987Z,24.06
2023-07-20T08:40:04.398Z,24.13
2023-07-20T08:42:30.792Z,24.10
2023-07-20T08:44:57.201Z,24.12
2023-07-20T08:47:23.644Z,24.34
2023-07-20T08:49:50.046Z,24.49
2023-07-20T08:52:16.482Z,24.57
2023-07-20T08:54:42.875Z,24.62
2023-07-20T08:57:09.254Z,24.81
2023-07-20T08:59:35.636Z,24.97
2023-07-20T09:02:02.093Z,24.92
2023-07-20T09:04:28.530Z,25.05
2023-07-20T09:06:54.913Z,25.12
2023-07-20T09:09:21.304Z,25.29
2023-07-20T09:11:47.678Z,25.21
2023-07-20T09:14:14.050Z,25.24
2023-07-20T09:16:40.515Z,25.28
2023-07-20T09:19:08.585Z,25.36
2023-07-20T09:21:35.059Z,25.37
2023-07-20T09:24:01.450Z,25.62
2023-07-20T09:26:28.742Z,25.64
2023-07-20T09:28:55.449Z,25.70
2023-07-20T09:31:21.871Z,25.82
2023-07-20T09:36:57.810Z,25.97
2023-07-20T09:39:05.431Z,26.07
2023-07-20T09:44:01.883Z,26.10
2023-07-20T09:51:26.883Z,26.31
2023-07-20T09:53:53.261Z,26.13
2023-07-20T09:56:21.916Z,26.38
2023-07-20T09:58:49.131Z,26.24
2023-07-20T10:01:15.607Z,26.51
2023-07-20T10:03:42.170Z,26.57
2023-07-20T10:06:08.684Z,26.63
2023-07-20T10:11:04.422Z,26.78
2023-07-20T10:13:30.806Z,26.68
2023-07-20T10:15:57.230Z,26.57
2023-07-20T10:18:23.654Z,26.41
2023-07-20T10:23:19.351Z,26.55
2023-07-20T10:25:45.731Z,26.72
2023-07-20T10:28:12.183Z,26.87
2023-07-20T10:30:38.577Z,26.88
2023-07-20T10:33:05.004Z,27.00
2023-07-20T10:35:31.436Z,27.10
2023-07-20T10:37:57.833Z,27.24
2023-07-20T10:40:24.254Z,27.29
2023-07-20T10:42:50.659Z,27.44
2023-07-20T10:45:17.051Z,27.56
2023-07-20T10:47:43.502Z,27.78
2023-07-20T10:50:09.911Z,27.96
2023-07-20T10:52:36.292Z,28.12
2023-07-20T10:55:02.678Z,28.27
2023-07-20T10:57:29.087Z,28.39
2023-07-20T10:59:55.458Z,28.48
2023-07-20T11:02:21.968Z,28.50
2023-07-20T11:04:48.472Z,28.61
2023-07-20T11:07:14.993Z,28.78
2023-07-20T11:09:41.476Z,28.88
2023-07-20T11:12:07.876Z,28.98
2023-07-20T11:14:34.286Z,29.07
2023-07-20T11:17:00.819Z,29.17
2023-07-20T11:22:02.686Z,29.18
2023-07-20T11:24:30.946Z,28.89
2023-07-20T11:26:57.485Z,28.69
2023-07-20T11:29:31.088Z,28.86
2023-07-20T11:31:59.038Z,28.79
2023-07-20T11:34:25.433Z,28.91
2023-07-20T11:39:21.111Z,29.13
2023-07-20T11:41:47.488Z,29.12
2023-07-20T11:44:13.976Z,29.18
2023-07-20T11:46:40.423Z,29.36
2023-07-20T11:49:06.803Z,29.65
2023-07-20T11:51:33.199Z,29.74
2023-07-20T11:53:59.591Z,29.94
2023-07-20T11:56:26.037Z,30.01
2023-07-20T11:58:52.417Z,30.13
2023-07-20T12:01:18.829Z,30.19
2023-07-20T12:03:45.278Z,30.28
2023-07-20T12:06:11.710Z,30.16
2023-07-20T12:08:38.094Z,29.98
2023-07-20T12:11:04.486Z,30.02
2023-07-20T12:13:30.874Z,30.14
2023-07-20T12:15:57.275Z,30.20
2023-07-20T12:18:23.666Z,30.11
2023-07-20T12:20:50.075Z,30.32
2023-07-20T12:23:16.464Z,30.50
2023-07-20T12:25:42.998Z,30.69
2023-07-20T12:28:09.397Z,30.76
2023-07-20T12:30:35.765Z,30.50
2023-07-20T12:33:02.184Z,30.25
2023-07-20T12:35:28.650Z,29.84
2023-07-20T12:37:55.049Z,29.96
2023-07-20T12:40:21.437Z,30.11
2023-07-20T12:42:47.821Z,29.89
2023-07-20T12:45:14.222Z,30.14
2023-07-20T12:47:40.655Z,30.00
2023-07-20T12:50:07.066Z,29.75
2023-07-20T12:52:33.446Z,29.76
2023-07-20T12:54:59.824Z,30.14
2023-07-20T12:57:26.208Z,30.27
2023-07-20T12:59:52.582Z,30.50
2023-07-20T13:02:18.973Z,30.69
2023-07-20T13:04:45.384Z,30.84
2023-07-20T13:09:41.060Z,30.84
2023-07-20T13:12:07.435Z,30.89
2023-07-20T13:14:33.827Z,30.98
2023-07-20T13:17:00.212Z,30.68
2023-07-20T13:19:27.699Z,30.71
2023-07-20T13:21:55.665Z,30.92
2023-07-20T13:24:22.089Z,30.90
2023-07-20T13:26:48.530Z,30.57
2023-07-20T13:29:14.911Z,30.59
2023-07-20T13:31:42.473Z,30.70
2023-07-20T13:34:09.226Z,30.96
2023-07-20T13:36:36.761Z,30.68
2023-07-20T13:39:03.291Z,30.28
2023-07-20T13:41:30.304Z,30.16
2023-07-20T13:43:58.174Z,30.18
2023-07-20T13:48:55.808Z,29.62
2023-07-20T13:53:52.423Z,29.69
2023-07-20T13:56:21.491Z,29.67
2023-07-20T13:58:50.824Z,29.85
2023-07-20T14:01:29.473Z,30.25
2023-07-20T14:03:56.596Z,30.72
2023-07-20T14:06:25.392Z,31.13
2023-07-20T14:08:53.057Z,31.42
2023-07-20T14:13:48.752Z,31.26
2023-07-20T14:16:15.179Z,31.27
2023-07-20T14:18:42.063Z,31.21
2023-07-20T14:21:09.640Z,31.31
2023-07-20T14:23:36.626Z,31.29
2023-07-20T14:26:03.336Z,31.40
2023-07-20T14:28:29.752Z,31.38
2023-07-20T14:30:56.218Z,31.24
2023-07-20T14:33:22.613Z,31.46
2023-07-20T14:35:49.031Z,31.83
2023-07-20T14:38:15.453Z,32.07
2023-07-20T14:40:41.817Z,32.39
2023-07-20T14:43:08.205Z,32.02
2023-07-20T14:45:34.613Z,31.95
2023-07-20T14:48:01.054Z,32.05
2023-07-20T14:50:27.570Z,32.01
2023-07-20T14:52:53.979Z,31.74
2023-07-20T14:55:20.366Z,31.53
2023-07-20T14:57:46.752Z,31.40
2023-07-20T15:00:13.168Z,31.04
2023-07-20T15:02:39.588Z,30.88
2023-07-20T15:05:06.015Z,30.91
2023-07-20T15:07:32.411Z,30.60
2023-07-20T15:09:58.864Z,30.59
2023-07-20T15:12:25.296Z,30.41
2023-07-20T15:14:51.679Z,30.24
2023-07-20T15:17:18.077Z,30.59
2023-07-20T15:19:44.449Z,30.99
2023-07-20T15:22:11.128Z,30.96
2023-07-20T15:24:37.959Z,31.24
2023-07-20T15:27:04.574Z,31.42
2023-07-20T15:32:00.932Z,31.39
2023-07-20T15:34:28.540Z,31.33
2023-07-20T15:36:55.226Z,31.25
2023-07-20T15:39:21.639Z,31.63
2023-07-20T15:41:48.075Z,31.17
2023-07-20T15:44:14.453Z,31.07
2023-07-20T15:46:40.938Z,30.93
2023-07-20T15:49:07.374Z,31.00
2023-07-20T15:51:33.947Z,30.77
2023-07-20T15:54:00.337Z,30.84
2023-07-20T15:56:26.723Z,30.75
2023-07-20T15:58:53.743Z,30.82
2023-07-20T16:01:20.229Z,30.65
2023-07-20T16:03:46.637Z,30.60
2023-07-20T16:06:13.040Z,31.09
2023-07-20T16:08:39.444Z,31.18
2023-07-20T16:11:11.890Z,31.26
2023-07-20T16:13:38.274Z,31.40
2023-07-20T16:16:04.681Z,31.70
2023-07-20T16:18:31.057Z,31.65
2023-07-20T16:20:57.441Z,31.82
2023-07-20T16:23:23.928Z,31.76
2023-07-20T16:25:50.304Z,31.40
2023-07-20T16:28:16.697Z,31.00
2023-07-20T16:30:43.102Z,30.92
2023-07-20T16:33:09.537Z,30.80
2023-07-20T16:40:56.229Z,30.80
2023-07-20T16:45:50.121Z,30.85
2023-07-20T16:48:19.255Z,30.82
2023-07-20T16:50:46.074Z,30.97
2023-07-20T16:53:12.464Z,30.72
2023-07-20T16:55:38.847Z,30.78
2023-07-20T16:58:05.251Z,30.90
2023-07-20T17:00:31.668Z,30.68
2023-07-20T17:02:58.194Z,30.63
2023-07-20T17:05:24.766Z,30.86
2023-07-20T17:07:51.161Z,30.80
2023-07-20T17:10:17.565Z,30.70
2023-07-20T17:12:43.943Z,30.67
2023-07-20T17:15:10.357Z,30.70
2023-07-20T17:17:36.859Z,30.72
2023-07-20T17:22:32.677Z,30.86
2023-07-20T17:27:28.476Z,30.89
2023-07-20T17:29:55.071Z,31.07
2023-07-20T17:32:21.644Z,31.13
2023-07-20T17:34:48.086Z,31.12
2023-07-20T17:37:17.427Z,31.11
2023-07-20T17:44:42.632Z,31.00
2023-07-20T17:49:38.295Z,30.92
2023-07-20T17:52:04.697Z,31.15
2023-07-20T17:54:31.102Z,31.27
2023-07-20T17:56:57.503Z,31.30
2023-07-20T17:59:23.895Z,31.13
2023-07-20T18:01:50.391Z,30.98
2023-07-20T18:04:16.880Z,30.81
2023-07-20T18:06:43.448Z,30.74
2023-07-20T18:09:09.843Z,30.76
2023-07-20T18:11:38.166Z,30.62
2023-07-20T18:14:06.141Z,30.47
2023-07-20T18:16:32.538Z,30.55
2023-07-20T18:18:58.917Z,30.46
2023-07-20T18:21:25.568Z,30.38
2023-07-20T18:23:52.224Z,30.13
2023-07-20T18:26:18.632Z,29.83
2023-07-20T18:28:45.018Z,29.64
2023-07-20T18:31:11.458Z,29.31
2023-07-20T18:33:37.858Z,29.01
2023-07-20T18:36:04.260Z,29.05
2023-07-20T18:38:30.656Z,28.85
2023-07-20T18:40:57.046Z,28.66
2023-07-20T18:43:23.424Z,28.47
2023-07-20T18:45:49.836Z,28.30
2023-07-20T18:48:16.285Z,28.00
2023-07-20T18:50:42.675Z,27.92
2023-07-20T18:53:09.090Z,27.73
2023-07-20T18:55:35.527Z,27.55
2023-07-20T18:58:01.908Z,27.49
2023-07-20T19:00:28.328Z,27.30
2023-07-20T19:02:54.826Z,27.18
2023-07-20T19:05:21.316Z,27.02
2023-07-20T19:07:47.738Z,26.93
2023-07-20T19:10:14.121Z,26.96
2023-07-20T19:12:40.518Z,26.93
2023-07-20T19:15:06.902Z,26.80
2023-07-20T19:17:33.337Z,26.68
2023-07-20T19:19:59.788Z,26.58
2023-07-20T19:22:26.190Z,26.56
2023-07-20T19:24:52.630Z,26.45
2023-07-20T19:27:19.081Z,26.40
2023-07-20T19:29:45.504Z,26.44
2023-07-20T19:32:12.001Z,26.36
2023-07-20T19:34:38.433Z,26.28
2023-07-20T19:37:04.833Z,26.28
2023-07-20T19:39:31.230Z,26.13
2023-07-20T19:41:57.623Z,26.07
2023-07-20T19:44:24.133Z,25.91
2023-07-20T19:46:50.628Z,25.91
2023-07-20T19:49:17.066Z,25.83
2023-07-20T19:51:43.448Z,25.71
2023-07-20T19:56:39.195Z,25.75
2023-07-20T19:59:05.623Z,25.58
2023-07-20T20:06:30.592Z,25.45
2023-07-20T20:08:56.982Z,25.40
2023-07-20T20:11:23.364Z,25.20
2023-07-20T20:13:49.747Z,25.07
2023-07-20T20:16:16.148Z,25.10
2023-07-20T20:18:42.529Z,24.98
2023-07-20T20:21:08.911Z,24.74
2023-07-20T20:23:37.297Z,24.79
2023-07-20T20:26:03.681Z,24.62
2023-07-20T20:28:30.056Z,24.57
2023-07-20T20:30:56.523Z,24.57
2023-07-20T20:33:25.380Z,24.50
2023-07-20T20:35:52.502Z,24.38
2023-07-20T20:38:18.885Z,24.34
2023-07-20T20:40:45.288Z,24.23
2023-07-20T20:43:11.677Z,24.26
2023-07-20T20:45:38.080Z,24.08
2023-07-20T20:48:04.498Z,24.04
2023-07-20T20:50:30.902Z,23.87
2023-07-20T20:52:57.268Z,23.89
2023-07-20T20:55:23.660Z,23.88
2023-07-20T20:57:50.038Z,23.82
2023-07-20T21:00:16.436Z,23.77
2023-07-20T21:02:43.541Z,23.62
2023-07-20T21:05:11.126Z,23.44
2023-07-20T21:07:37.516Z,23.16
2023-07-20T21:10:03.898Z,23.14
2023-07-20T21:12:30.292Z,23.15
2023-07-20T21:14:56.671Z,23.14
2023-07-20T21:17:23.110Z,23.13
2023-07-20T21:19:49.522Z,23.08
2023-07-20T21:22:15.906Z,23.04
2023-07-20T21:24:42.388Z,23.04
2023-07-20T21:27:08.812Z,22.84
2023-07-20T21:29:35.214Z,22.81
2023-07-20T21:32:01.612Z,22.76
2023-07-20T21:34:28.014Z,22.84
2023-07-20T21:36:54.392Z,22.78
2023-07-20T21:39:20.815Z,22.74
2023-07-20T21:41:47.238Z,22.70
2023-07-20T21:44:13.641Z,22.71
2023-07-20T21:46:40.096Z,22.65
2023-07-20T21:49:06.517Z,22.63
2023-07-20T21:51:32.945Z,22.63
2023-07-20T21:53:59.338Z,22.43
2023-07-20T21:56:26.047Z,22.41
2023-07-20T21:58:52.712Z,22.47
2023-07-20T22:03:50.734Z,22.48
2023-07-20T22:06:17.282Z,22.47
2023-07-20T22:08:43.694Z,22.51
2023-07-20T22:11:10.107Z,22.49
2023-07-20T22:13:36.504Z,22.45
2023-07-20T22:16:02.923Z,22.45
2023-07-20T22:18:35.253Z,22.25
2023-07-20T22:21:02.942Z,22.17
2023-07-20T22:23:29.340Z,22.23
2023-07-20T22:25:55.743Z,21.92
2023-07-20T22:28:22.130Z,21.89
2023-07-20T22:30:48.537Z,21.86
2023-07-20T22:33:14.939Z,21.76
2023-07-20T22:35:41.335Z,21.86
2023-07-20T22:38:07.800Z,21.74
2023-07-20T22:40:34.203Z,21.70
2023-07-20T22:43:00.599Z,21.60
2023-07-20T22:45:26.986Z,21.71
2023-07-20T22:47:53.401Z,21.62
2023-07-20T22:50:19.818Z,21.61
2023-07-20T22:52:46.201Z,21.71
2023-07-20T22:55:12.585Z,21.67
2023-07-20T22:57:38.953Z,21.63
2023-07-20T23:00:05.335Z,21.65
2023-07-20T23:02:31.824Z,21.57
2023-07-20T23:04:58.314Z,21.54
2023-07-20T23:07:24.707Z,21.47
2023-07-20T23:09:51.133Z,21.55
2023-07-20T23:12:17.539Z,21.49
2023-07-20T23:14:43.925Z,21.48
2023-07-20T23:17:10.316Z,21.56
2023-07-20T23:19:36.716Z,21.45
2023-07-20T23:22:03.080Z,21.55
2023-07-20T23:24:29.531Z,21.71
2023-07-20T23:26:55.946Z,21.72
2023-07-20T23:29:22.321Z,21.73
2023-07-20T23:31:48.790Z,21.55
2023-07-20T23:34:15.195Z,21.41
2023-07-20T23:36:41.585Z,21.36
2023-07-20T23:39:07.988Z,21.28
2023-07-20T23:41:34.390Z,21.19
2023-07-20T23:44:00.766Z,21.44
2023-07-20T23:46:27.406Z,21.50
2023-07-20T23:48:53.996Z,21.65
2023-07-20T23:51:20.396Z,21.67
2023-07-20T23:53:46.788Z,21.52
2023-07-20T23:56:13.162Z,21.40
2023-07-20T23:58:39.550Z,21.35
